createdAt,value
2018-04-01T00:00:28.180Z,99566.30
2018-04-01T00:02:55.027Z,99568.81
2018-04-01T00:05:21.875Z,99565.56
2018-04-01T00:07:48.733Z,99569.57
2018-04-01T00:10:15.584Z,99567.89
2018-04-01T00:12:42.459Z,99565.13
2018-04-01T00:15:09.309Z,99559.20
2018-04-01T00:17:36.163Z,99561.70
2018-04-01T00:20:03.015Z,99567.77
2018-04-01T00:22:29.874Z,99559.37
2018-04-01T00:24:56.718Z,99560.16
2018-04-01T00:27:23.606Z,99562.81
2018-04-01T00:29:50.566Z,99564.95
2018-04-01T00:32:17.423Z,99564.23
2018-04-01T00:34:44.284Z,99562.69
2018-04-01T00:37:11.142Z,99561.38
2018-04-01T00:39:37.987Z,99569.69
2018-04-01T00:42:04.863Z,99560.83
2018-04-01T00:44:31.714Z,99560.89
2018-04-01T00:46:58.630Z,99555.00
2018-04-01T00:49:25.502Z,99556.35
2018-04-01T00:51:52.335Z,99561.55
2018-04-01T00:54:19.191Z,99560.70
2018-04-01T00:56:46.043Z,99561.95
2018-04-01T00:59:12.915Z,99560.24
2018-04-01T01:01:39.771Z,99563.40
2018-04-01T01:04:06.626Z,99562.75
2018-04-01T01:06:33.479Z,99564.06
2018-04-01T01:09:00.331Z,99559.06
2018-04-01T01:11:27.186Z,99560.05
2018-04-01T01:13:54.038Z,99556.90
2018-04-01T01:16:20.895Z,99557.61
2018-04-01T01:18:47.858Z,99557.91
2018-04-01T01:21:14.702Z,99551.61
2018-04-01T01:23:41.568Z,99544.63
2018-04-01T01:26:08.487Z,99551.10
2018-04-01T01:28:35.440Z,99551.59
2018-04-01T01:31:02.285Z,99549.97
2018-04-01T01:33:29.218Z,99554.50
2018-04-01T01:35:56.071Z,99553.29
2018-04-01T01:38:22.943Z,99559.98
2018-04-01T01:40:49.823Z,99562.35
2018-04-01T01:43:16.680Z,99556.78
2018-04-01T01:45:43.534Z,99562.02
2018-04-01T01:48:10.401Z,99557.93
2018-04-01T01:50:37.238Z,99560.52
2018-04-01T01:53:04.107Z,99556.34
2018-04-01T01:55:30.959Z,99550.26
2018-04-01T01:57:57.833Z,99551.84
2018-04-01T02:00:24.680Z,99559.19
2018-04-01T02:02:51.537Z,99562.06
2018-04-01T02:05:18.383Z,99560.48
2018-04-01T02:07:45.235Z,99563.64
2018-04-01T02:10:12.078Z,99560.29
2018-04-01T02:12:38.990Z,99562.91
2018-04-01T02:15:05.840Z,99561.43
2018-04-01T02:17:32.696Z,99567.18
2018-04-01T02:19:59.618Z,99566.54
2018-04-01T02:22:26.468Z,99572.34
2018-04-01T02:24:53.319Z,99571.34
2018-04-01T02:27:20.171Z,99575.44
2018-04-01T02:29:47.058Z,99581.09
2018-04-01T02:32:13.911Z,99582.28
2018-04-01T02:34:40.791Z,99584.83
2018-04-01T02:37:07.635Z,99593.61
2018-04-01T02:39:34.483Z,99591.10
2018-04-01T02:42:01.332Z,99585.39
2018-04-01T02:44:28.836Z,99583.59
2018-04-01T02:46:55.683Z,99587.58
2018-04-01T02:49:22.546Z,99588.39
2018-04-01T02:51:49.403Z,99589.11
2018-04-01T02:54:16.248Z,99581.97
2018-04-01T02:56:43.102Z,99589.31
2018-04-01T02:59:10.015Z,99589.80
2018-04-01T03:01:36.873Z,99593.62
2018-04-01T03:04:03.723Z,99592.88
2018-04-01T03:06:30.581Z,99592.73
2018-04-01T03:08:57.431Z,99591.40
2018-04-01T03:11:24.279Z,99595.89
2018-04-01T03:13:51.143Z,99600.71
2018-04-01T03:16:18.025Z,99600.38
2018-04-01T03:18:44.883Z,99604.73
2018-04-01T03:21:11.743Z,99604.77
2018-04-01T03:23:38.602Z,99606.36
2018-04-01T03:26:05.462Z,99609.61
2018-04-01T03:28:32.542Z,99610.27
2018-04-01T03:30:59.473Z,99611.94
2018-04-01T03:33:26.328Z,99624.67
2018-04-01T03:35:53.175Z,99620.82
2018-04-01T03:38:20.027Z,99621.80
2018-04-01T03:40:46.933Z,99615.61
2018-04-01T03:43:13.801Z,99621.38
2018-04-01T03:45:40.662Z,99617.86
2018-04-01T03:48:07.523Z,99631.42
2018-04-01T03:50:34.370Z,99627.13
2018-04-01T03:53:01.235Z,99635.73
2018-04-01T03:55:28.078Z,99629.05
2018-04-01T03:57:54.990Z,99623.20
2018-04-01T04:00:21.881Z,99631.17
2018-04-01T04:02:48.699Z,99636.30
2018-04-01T04:05:15.566Z,99630.56
2018-04-01T04:07:42.418Z,99640.69
2018-04-01T04:10:09.279Z,99630.53
2018-04-01T04:12:36.132Z,99635.69
2018-04-01T04:15:03.400Z,99636.69
2018-04-01T04:17:30.301Z,99630.53
2018-04-01T04:19:57.111Z,99633.31
2018-04-01T04:22:23.958Z,99628.81
2018-04-01T04:24:50.887Z,99635.17
2018-04-01T04:27:17.743Z,99643.78
2018-04-01T04:29:45.503Z,99642.08
2018-04-01T04:32:12.357Z,99644.88
2018-04-01T04:34:39.219Z,99645.56
2018-04-01T04:37:06.108Z,99648.23
2018-04-01T04:39:32.962Z,99650.27
2018-04-01T04:41:59.816Z,99646.88
2018-04-01T04:44:26.702Z,99651.74
2018-04-01T04:46:53.571Z,99652.94
2018-04-01T04:49:20.434Z,99655.66
2018-04-01T04:51:47.283Z,99652.05
2018-04-01T04:54:14.144Z,99658.05
2018-04-01T04:56:40.995Z,99652.38
2018-04-01T04:59:07.850Z,99660.77
2018-04-01T05:01:34.726Z,99656.91
2018-04-01T05:04:01.588Z,99662.08
2018-04-01T05:06:28.435Z,99666.09
2018-04-01T05:08:55.283Z,99672.98
2018-04-01T05:11:22.134Z,99680.44
2018-04-01T05:13:48.982Z,99675.33
2018-04-01T05:16:15.879Z,99681.07
2018-04-01T05:18:42.743Z,99682.33
2018-04-01T05:21:09.588Z,99684.52
2018-04-01T05:23:36.446Z,99683.20
2018-04-01T05:26:03.295Z,99674.83
2018-04-01T05:28:30.182Z,99684.31
2018-04-01T05:30:57.135Z,99686.36
2018-04-01T05:33:24.070Z,99690.77
2018-04-01T05:35:51.039Z,99694.98
2018-04-01T05:38:17.889Z,99696.50
2018-04-01T05:40:44.753Z,99700.88
2018-04-01T05:43:11.599Z,99706.04
2018-04-01T05:45:38.459Z,99706.64
2018-04-01T05:48:05.302Z,99709.01
2018-04-01T05:50:32.231Z,99708.88
2018-04-01T05:52:59.100Z,99712.10
2018-04-01T05:55:25.963Z,99712.69
2018-04-01T05:57:52.813Z,99714.88
2018-04-01T06:00:19.698Z,99714.66
2018-04-01T06:02:46.549Z,99715.03
2018-04-01T06:05:14.353Z,99716.82
2018-04-01T06:07:41.211Z,99720.01
2018-04-01T06:10:08.058Z,99722.00
2018-04-01T06:12:34.943Z,99727.09
2018-04-01T06:15:02.058Z,99730.50
2018-04-01T06:17:28.986Z,99726.22
2018-04-01T06:19:55.930Z,99732.14
2018-04-01T06:22:22.775Z,99736.98
2018-04-01T06:24:49.635Z,99733.89
2018-04-01T06:27:16.486Z,99735.59
2018-04-01T06:29:43.402Z,99730.66
2018-04-01T06:32:10.269Z,99738.02
2018-04-01T06:34:37.113Z,99744.09
2018-04-01T06:37:03.964Z,99738.52
2018-04-01T06:39:30.818Z,99750.37
2018-04-01T06:41:57.743Z,99760.08
2018-04-01T06:44:24.599Z,99763.30
2018-04-01T06:46:51.476Z,99758.89
2018-04-01T06:49:18.330Z,99767.27
2018-04-01T06:51:45.242Z,99771.77
2018-04-01T06:54:12.095Z,99773.64
2018-04-01T06:56:38.942Z,99775.20
2018-04-01T06:59:05.795Z,99776.66
2018-04-01T07:01:32.648Z,99786.88
2018-04-01T07:03:59.498Z,99788.64
2018-04-01T07:06:26.347Z,99788.37
2018-04-01T07:08:53.206Z,99788.99
2018-04-01T07:11:20.055Z,99792.36
2018-04-01T07:13:46.894Z,99792.81
2018-04-01T07:16:13.756Z,99794.24
2018-04-01T07:18:40.599Z,99788.44
2018-04-01T07:21:07.558Z,99792.08
2018-04-01T07:23:34.407Z,99791.78
2018-04-01T07:26:01.259Z,99791.45
2018-04-01T07:28:28.102Z,99795.37
2018-04-01T07:30:54.959Z,99789.45
2018-04-01T07:33:21.869Z,99796.72
2018-04-01T07:35:48.723Z,99796.95
2018-04-01T07:38:15.571Z,99803.69
2018-04-01T07:40:42.444Z,99814.79
2018-04-01T07:43:09.295Z,99812.68
2018-04-01T07:45:36.179Z,99814.80
2018-04-01T07:48:03.035Z,99823.78
2018-04-01T07:50:29.885Z,99822.14
2018-04-01T07:52:56.738Z,99824.90
2018-04-01T07:55:23.599Z,99823.16
2018-04-01T07:57:50.449Z,99824.20
2018-04-01T08:00:17.333Z,99831.13
2018-04-01T08:02:44.183Z,99834.01
2018-04-01T08:05:11.041Z,99837.97
2018-04-01T08:07:37.887Z,99838.38
2018-04-01T08:10:04.819Z,99835.69
2018-04-01T08:12:31.663Z,99834.09
2018-04-01T08:14:58.544Z,99838.48
2018-04-01T08:17:25.362Z,99836.76
2018-04-01T08:19:52.244Z,99832.95
2018-04-01T08:22:19.095Z,99837.47
2018-04-01T08:24:45.983Z,99838.27
2018-04-01T08:27:12.831Z,99845.70
2018-04-01T08:29:39.719Z,99844.91
2018-04-01T08:32:06.634Z,99841.92
2018-04-01T08:34:33.511Z,99845.11
2018-04-01T08:37:00.422Z,99847.91
2018-04-01T08:39:27.281Z,99851.02
2018-04-01T08:41:54.214Z,99854.16
2018-04-01T08:44:21.155Z,99850.55
2018-04-01T08:46:47.998Z,99858.57
2018-04-01T08:49:14.854Z,99859.17
2018-04-01T08:51:41.783Z,99865.46
2018-04-01T08:54:08.727Z,99867.41
2018-04-01T08:56:35.647Z,99871.73
2018-04-01T08:59:02.515Z,99872.34
2018-04-01T09:01:29.459Z,99865.46
2018-04-01T09:03:56.400Z,99872.64
2018-04-01T09:06:23.367Z,99873.30
2018-04-01T09:08:50.201Z,99875.64
2018-04-01T09:11:17.050Z,99879.30
2018-04-01T09:13:43.970Z,99878.02
2018-04-01T09:16:10.844Z,99886.63
2018-04-01T09:18:37.683Z,99897.64
2018-04-01T09:21:04.538Z,99900.03
2018-04-01T09:23:31.455Z,99892.49
2018-04-01T09:25:58.382Z,99892.53
2018-04-01T09:28:25.242Z,99889.05
2018-04-01T09:30:52.196Z,99901.26
2018-04-01T09:33:19.028Z,99899.63
2018-04-01T09:35:46.827Z,99900.88
2018-04-01T09:38:13.674Z,99897.14
2018-04-01T09:40:40.519Z,99893.25
2018-04-01T09:43:07.378Z,99890.06
2018-04-01T09:45:34.340Z,99895.72
2018-04-01T09:48:01.163Z,99899.45
2018-04-01T09:50:28.014Z,99896.76
2018-04-01T09:52:54.859Z,99900.14
2018-04-01T09:55:21.714Z,99899.66
2018-04-01T09:57:48.546Z,99903.20
2018-04-01T10:00:21.106Z,99901.13
2018-04-01T10:02:48.498Z,99905.48
2018-04-01T10:05:16.808Z,99904.73
2018-04-01T10:07:44.183Z,99909.91
2018-04-01T10:10:11.620Z,99905.22
2018-04-01T10:12:39.026Z,99910.09
2018-04-01T10:15:06.445Z,99914.69
2018-04-01T10:17:33.838Z,99917.52
2018-04-01T10:20:01.248Z,99915.05
2018-04-01T10:22:28.698Z,99911.05
2018-04-01T10:24:56.074Z,99911.75
2018-04-01T10:27:23.454Z,99916.03
2018-04-01T10:29:50.835Z,99916.41
2018-04-01T10:32:18.325Z,99918.25
2018-04-01T10:34:45.702Z,99918.19
2018-04-01T10:37:13.082Z,99920.27
2018-04-01T10:39:40.482Z,99920.54
2018-04-01T10:42:07.870Z,99924.13
2018-04-01T10:44:35.251Z,99924.00
2018-04-01T10:47:02.648Z,99936.78
2018-04-01T10:49:30.029Z,99933.84
2018-04-01T10:51:57.410Z,99938.22
2018-04-01T10:54:24.250Z,99942.98
2018-04-01T10:59:22.096Z,99948.70
2018-04-01T11:01:48.938Z,99947.45
2018-04-01T11:04:15.780Z,99953.84
2018-04-01T11:06:42.623Z,99950.91
2018-04-01T11:09:09.530Z,99947.72
2018-04-01T11:11:36.366Z,99954.12
2018-04-01T11:14:03.239Z,99952.77
2018-04-01T11:16:30.080Z,99959.20
2018-04-01T11:18:57.022Z,99957.33
2018-04-01T11:21:23.865Z,99960.81
2018-04-01T11:23:50.722Z,99961.41
2018-04-01T11:26:17.566Z,99971.89
2018-04-01T11:28:44.495Z,99971.76
2018-04-01T11:31:11.351Z,99972.52
2018-04-01T11:33:38.195Z,99968.05
2018-04-01T11:36:05.045Z,99968.84
2018-04-01T11:38:31.893Z,99968.71
2018-04-01T11:40:58.734Z,99972.67
2018-04-01T11:43:25.582Z,99972.95
2018-04-01T11:45:52.486Z,99975.30
2018-04-01T11:48:19.335Z,99979.36
2018-04-01T11:50:46.186Z,99976.06
2018-04-01T11:53:13.123Z,99982.09
2018-04-01T11:55:39.977Z,99981.16
2018-04-01T11:58:06.819Z,99984.78
2018-04-01T12:00:33.671Z,99977.52
2018-04-01T12:03:00.608Z,99981.58
2018-04-01T12:05:27.536Z,99984.94
2018-04-01T12:07:54.374Z,99989.03
2018-04-01T12:10:21.324Z,99986.86
2018-04-01T12:12:48.266Z,99985.08
2018-04-01T12:15:15.122Z,99991.67
2018-04-01T12:17:42.015Z,99989.01
2018-04-01T12:20:08.886Z,99991.58
2018-04-01T12:22:35.711Z,99989.76
2018-04-01T12:25:02.652Z,99993.60
2018-04-01T12:27:29.590Z,99997.58
2018-04-01T12:29:56.443Z,99995.22
2018-04-01T12:32:23.290Z,99988.42
2018-04-01T12:34:50.154Z,99986.82
2018-04-01T12:37:17.006Z,99989.31
2018-04-01T12:39:43.850Z,99996.97
2018-04-01T12:42:10.691Z,99996.04
2018-04-01T12:44:37.563Z,99991.48
2018-04-01T12:47:04.422Z,99994.45
2018-04-01T12:49:31.362Z,99995.28
2018-04-01T12:51:58.225Z,99996.38
2018-04-01T12:54:25.159Z,99995.63
2018-04-01T12:56:52.018Z,99998.76
2018-04-01T12:59:18.872Z,100007.48
2018-04-01T13:01:45.761Z,100013.65
2018-04-01T13:04:12.570Z,100009.22
2018-04-01T13:06:39.423Z,100010.22
2018-04-01T13:09:06.279Z,100015.67
2018-04-01T13:11:33.139Z,100015.05
2018-04-01T13:13:59.991Z,100016.59
2018-04-01T13:16:26.934Z,100018.06
2018-04-01T13:18:53.787Z,100021.81
2018-04-01T13:21:20.733Z,100025.89
2018-04-01T13:23:47.579Z,100027.42
2018-04-01T13:26:14.517Z,100030.98
2018-04-01T13:28:41.460Z,100030.23
2018-04-01T13:31:08.315Z,100029.48
2018-04-01T13:33:35.170Z,100038.84
2018-04-01T13:36:02.026Z,100040.02
2018-04-01T13:38:28.883Z,100040.77
2018-04-01T13:40:55.769Z,100038.27
2018-04-01T13:43:22.627Z,100039.38
2018-04-01T13:45:49.550Z,100037.23
2018-04-01T13:48:16.519Z,100043.10
2018-04-01T13:50:43.447Z,100045.73
2018-04-01T13:53:10.286Z,100042.10
2018-04-01T13:55:37.145Z,100045.61
2018-04-01T13:58:03.999Z,100052.19
2018-04-01T14:00:30.845Z,100053.91
2018-04-01T14:02:57.704Z,100054.80
2018-04-01T14:05:24.628Z,100062.25
2018-04-01T14:07:51.582Z,100061.88
2018-04-01T14:10:18.438Z,100064.41
2018-04-01T14:12:45.394Z,100063.98
2018-04-01T14:15:12.237Z,100064.84
2018-04-01T14:17:39.103Z,100069.23
2018-04-01T14:20:05.957Z,100059.47
2018-04-01T14:22:32.866Z,100065.75
2018-04-01T14:24:59.728Z,100061.97
2018-04-01T14:27:26.583Z,100072.77
2018-04-01T14:29:53.430Z,100067.22
2018-04-01T14:32:20.330Z,100067.25
2018-04-01T14:34:47.177Z,100074.00
2018-04-01T14:37:14.031Z,100073.02
2018-04-01T14:39:40.883Z,100078.86
2018-04-01T14:42:07.814Z,100076.22
2018-04-01T14:44:34.743Z,100075.89
2018-04-01T14:47:01.695Z,100085.06
2018-04-01T14:49:28.631Z,100084.98
2018-04-01T14:51:55.628Z,100086.22
2018-04-01T14:54:22.524Z,100087.51
2018-04-01T14:56:49.471Z,100094.69
2018-04-01T14:59:16.320Z,100099.40
2018-04-01T15:01:43.183Z,100101.08
2018-04-01T15:04:10.060Z,100102.66
2018-04-01T15:06:36.940Z,100105.11
2018-04-01T15:09:03.784Z,100104.92
2018-04-01T15:11:30.674Z,100108.20
2018-04-01T15:13:57.567Z,100105.11
2018-04-01T15:16:24.425Z,100111.55
2018-04-01T15:18:51.358Z,100099.86
2018-04-01T15:21:18.303Z,100105.34
2018-04-01T15:23:45.243Z,100110.72
2018-04-01T15:26:12.107Z,100114.11
2018-04-01T15:28:38.944Z,100109.32
2018-04-01T15:31:05.795Z,100113.34
2018-04-01T15:33:32.639Z,100115.64
2018-04-01T15:35:59.564Z,100117.92
2018-04-01T15:38:26.412Z,100113.16
2018-04-01T15:40:53.340Z,100105.63
2018-04-01T15:43:20.192Z,100114.20
2018-04-01T15:45:47.127Z,100116.13
2018-04-01T15:48:13.992Z,100124.53
2018-04-01T15:50:40.898Z,100123.06
2018-04-01T15:53:07.778Z,100118.92
2018-04-01T15:55:34.710Z,100126.81
2018-04-01T15:58:01.652Z,100119.95
2018-04-01T16:00:28.596Z,100124.58
2018-04-01T16:02:55.582Z,100134.12
2018-04-01T16:05:22.418Z,100143.19
2018-04-01T16:07:49.267Z,100137.46
2018-04-01T16:10:16.128Z,100136.67
2018-04-01T16:12:43.001Z,100150.34
2018-04-01T16:15:09.834Z,100149.37
2018-04-01T16:17:36.694Z,100154.59
2018-04-01T16:20:03.543Z,100158.05
2018-04-01T16:22:30.486Z,100156.72
2018-04-01T16:24:57.330Z,100160.93
2018-04-01T16:27:24.192Z,100166.16
2018-04-01T16:29:51.048Z,100161.85
2018-04-01T16:32:17.890Z,100167.02
2018-04-01T16:34:44.727Z,100161.92
2018-04-01T16:37:11.582Z,100173.05
2018-04-01T16:39:38.543Z,100169.25
2018-04-01T16:42:05.275Z,100169.84
2018-04-01T16:44:32.114Z,100181.50
2018-04-01T16:46:59.065Z,100186.20
2018-04-01T16:49:25.919Z,100186.22
2018-04-01T16:51:52.859Z,100189.94
2018-04-01T16:54:19.703Z,100195.98
2018-04-01T16:56:46.686Z,100187.33
2018-04-01T16:59:13.522Z,100198.05
2018-04-01T17:01:40.374Z,100193.30
2018-04-01T17:04:07.214Z,100198.95
2018-04-01T17:06:34.067Z,100204.05
2018-04-01T17:09:00.965Z,100219.64
2018-04-01T17:11:27.822Z,100215.53
2018-04-01T17:13:54.751Z,100208.62
2018-04-01T17:16:21.607Z,100209.55
2018-04-01T17:18:48.450Z,100210.88
2018-04-01T17:21:15.300Z,100211.39
2018-04-01T17:23:42.222Z,100212.53
2018-04-01T17:26:09.070Z,100212.60
2018-04-01T17:28:35.939Z,100210.70
2018-04-01T17:31:02.790Z,100222.24
2018-04-01T17:33:29.763Z,100216.32
2018-04-01T17:35:56.611Z,100216.00
2018-04-01T17:38:23.454Z,100225.08
2018-04-01T17:40:50.539Z,100220.63
2018-04-01T17:43:17.460Z,100216.06
2018-04-01T17:45:44.339Z,100227.88
2018-04-01T17:48:11.195Z,100226.63
2018-04-01T17:50:38.123Z,100225.14
2018-04-01T17:53:05.085Z,100231.62
2018-04-01T17:55:31.962Z,100238.84
2018-04-01T17:57:58.826Z,100237.44
2018-04-01T18:00:25.683Z,100243.77
2018-04-01T18:02:52.650Z,100244.00
2018-04-01T18:05:19.506Z,100246.25
2018-04-01T18:07:46.378Z,100245.58
2018-04-01T18:10:13.224Z,100247.16
2018-04-01T18:12:40.114Z,100252.75
2018-04-01T18:15:06.976Z,100264.78
2018-04-01T18:17:33.836Z,100266.97
2018-04-01T18:20:00.747Z,100261.88
2018-04-01T18:22:27.601Z,100264.16
2018-04-01T18:24:54.454Z,100274.06
2018-04-01T18:27:21.373Z,100270.45
2018-04-01T18:29:48.450Z,100278.28
2018-04-01T18:32:15.314Z,100284.59
2018-04-01T18:34:42.216Z,100288.88
2018-04-01T18:37:09.155Z,100282.35
2018-04-01T18:39:36.098Z,100284.97
2018-04-01T18:42:03.046Z,100289.08
2018-04-01T18:44:29.964Z,100298.02
2018-04-01T18:46:56.818Z,100303.52
2018-04-01T18:49:23.666Z,100300.70
2018-04-01T18:51:50.527Z,100306.08
2018-04-01T18:54:17.460Z,100311.63
2018-04-01T18:56:44.394Z,100309.02
2018-04-01T18:59:11.255Z,100312.29
2018-04-01T19:01:38.182Z,100315.52
2018-04-01T19:04:05.030Z,100309.82
2018-04-01T19:06:31.883Z,100316.49
2018-04-01T19:08:58.819Z,100323.81
2018-04-01T19:11:25.663Z,100331.25
2018-04-01T19:13:52.570Z,100337.05
2018-04-01T19:16:19.978Z,100336.97
2018-04-01T19:18:47.414Z,100343.84
2018-04-01T19:21:14.870Z,100340.89
2018-04-01T19:23:42.268Z,100345.49
2018-04-01T19:26:09.654Z,100347.08
2018-04-01T19:28:37.102Z,100346.28
2018-04-01T19:31:04.510Z,100354.88
2018-04-01T19:33:31.911Z,100357.88
2018-04-01T19:35:59.298Z,100358.27
2018-04-01T19:38:26.694Z,100364.94
2018-04-01T19:40:54.087Z,100361.95
2018-04-01T19:43:21.490Z,100366.43
2018-04-01T19:45:48.875Z,100368.81
2018-04-01T19:48:16.332Z,100369.28
2018-04-01T19:50:43.741Z,100360.91
2018-04-01T19:53:11.128Z,100369.00
2018-04-01T19:55:38.524Z,100367.17
2018-04-01T19:58:05.920Z,100377.41
2018-04-01T20:00:33.338Z,100381.38
2018-04-01T20:03:00.733Z,100380.83
2018-04-01T20:05:28.138Z,100381.95
2018-04-01T20:07:55.597Z,100392.13
2018-04-01T20:10:22.986Z,100386.37
2018-04-01T20:12:50.408Z,100387.14
2018-04-01T20:15:17.789Z,100382.77
2018-04-01T20:17:45.203Z,100379.19
2018-04-01T20:20:12.601Z,100372.81
2018-04-01T20:22:40.011Z,100375.70
2018-04-01T20:25:07.407Z,100380.30
2018-04-01T20:27:34.870Z,100381.81
2018-04-01T20:30:02.260Z,100386.34
2018-04-01T20:32:29.731Z,100388.25
2018-04-01T20:34:57.155Z,100387.45
2018-04-01T20:37:24.547Z,100386.18
2018-04-01T20:39:52.003Z,100391.55
2018-04-01T20:42:19.386Z,100390.78
2018-04-01T20:44:46.814Z,100386.34
2018-04-01T20:47:14.207Z,100389.94
2018-04-01T20:49:41.603Z,100393.28
2018-04-01T20:52:09.075Z,100391.17
2018-04-01T20:54:37.139Z,100402.45
2018-04-01T20:57:04.512Z,100399.09
2018-04-01T20:59:31.911Z,100398.48
2018-04-01T21:01:59.306Z,100401.88
2018-04-01T21:04:26.699Z,100407.98
2018-04-01T21:06:54.118Z,100412.30
2018-04-01T21:09:21.526Z,100410.73
2018-04-01T21:11:48.924Z,100409.07
2018-04-01T21:14:16.324Z,100402.52
2018-04-01T21:16:43.739Z,100408.12
2018-04-01T21:19:11.204Z,100413.58
2018-04-01T21:21:38.590Z,100417.03
2018-04-01T21:24:06.002Z,100417.77
2018-04-01T21:26:33.468Z,100420.80
2018-04-01T21:29:00.895Z,100426.58
2018-04-01T21:31:28.284Z,100430.20
2018-04-01T21:33:55.682Z,100428.03
2018-04-01T21:36:23.155Z,100435.91
2018-04-01T21:38:50.552Z,100438.38
2018-04-01T21:41:17.938Z,100440.08
2018-04-01T21:43:45.342Z,100440.39
2018-04-01T21:46:12.748Z,100440.14
2018-04-01T21:48:40.159Z,100447.78
2018-04-01T21:51:07.550Z,100440.37
2018-04-01T21:53:34.953Z,100444.83
2018-04-01T21:56:02.351Z,100449.84
2018-04-01T21:58:29.774Z,100445.75
2018-04-01T22:00:57.170Z,100451.20
2018-04-01T22:03:24.579Z,100450.36
2018-04-01T22:05:51.962Z,100453.25
2018-04-01T22:08:19.363Z,100453.92
2018-04-01T22:10:46.786Z,100452.68
2018-04-01T22:13:14.178Z,100448.62
2018-04-01T22:15:41.599Z,100446.93
2018-04-01T22:18:09.431Z,100455.89
2018-04-01T22:20:36.932Z,100448.09
2018-04-01T22:23:17.475Z,100446.59
2018-04-01T22:25:44.876Z,100448.27
2018-04-01T22:28:12.286Z,100454.67
2018-04-01T22:30:39.683Z,100453.59
2018-04-01T22:33:07.164Z,100455.49
2018-04-01T22:35:34.619Z,100449.40
2018-04-01T22:38:02.067Z,100447.08
2018-04-01T22:40:29.462Z,100451.59
2018-04-01T22:42:56.879Z,100450.04
2018-04-01T22:45:24.281Z,100447.07
2018-04-01T22:47:51.670Z,100452.88
2018-04-01T22:50:19.086Z,100454.83
2018-04-01T22:52:46.488Z,100457.30
2018-04-01T22:55:13.894Z,100459.74
2018-04-01T22:57:41.294Z,100458.47
2018-04-01T23:00:08.695Z,100455.51
2018-04-01T23:02:36.120Z,100455.37
2018-04-01T23:05:03.513Z,100454.16
2018-04-01T23:07:30.898Z,100460.09
2018-04-01T23:09:58.297Z,100462.03
2018-04-01T23:12:25.697Z,100456.32
2018-04-01T23:14:53.108Z,100460.03
2018-04-01T23:17:20.499Z,100457.36
2018-04-01T23:19:48.003Z,100453.77
2018-04-01T23:22:15.390Z,100454.98
2018-04-01T23:24:42.782Z,100461.19
2018-04-01T23:27:10.183Z,100456.53
2018-04-01T23:29:37.626Z,100461.80
2018-04-01T23:32:05.087Z,100462.48
2018-04-01T23:34:32.535Z,100463.05
2018-04-01T23:37:00.854Z,100461.56
2018-04-01T23:39:28.270Z,100458.73
2018-04-01T23:41:55.667Z,100455.48
2018-04-01T23:44:23.058Z,100454.11
2018-04-01T23:46:50.442Z,100454.09
2018-04-01T23:49:17.882Z,100454.52
2018-04-01T23:51:45.275Z,100452.71
2018-04-01T23:54:12.679Z,100452.28
2018-04-01T23:56:40.153Z,100449.23
2018-04-01T23:59:08.315Z,100451.21
